Seboeis Plt, Maine
Current Conditions -  °F | °C
As of 7:18 PM on Monday 24 Nov 2014 (Local Time) from KBGR Reporting Station
Overcast Overcast  
Wind Chill: 58°   Ceiling: 1000
Heat Index: 58°   Visibility: 7mi
Dew Point: 57°   Wind: 15mph
Humidity: 97%   Direction: 180°S
Pressure: 29.55"   Gusts: NA
Location:  45.1976°N, 68.703°W
Report Text: KBGR 250018Z 18013KT 7SM SCT006 BKN010 OVC013 14/14 A2955 RMK AO2 CIG 007V013 T01440139
Loading
Personal Weather Stations






























Interactive Weather Map New forecast layout! Learn more

10-Day Weather Forecast

Advertisements
Track Severe Weather on mobile